createdAt,value
2023-07-18T00:01:29.116Z,102074.84
2023-07-18T00:03:51.113Z,102076.84
2023-07-18T00:06:13.101Z,102073.56
2023-07-18T00:08:35.132Z,102064.41
2023-07-18T00:10:56.956Z,102059.66
2023-07-18T00:13:18.884Z,102061.63
2023-07-18T00:15:40.726Z,102069.63
2023-07-18T00:18:03.485Z,102068.00
2023-07-18T00:20:26.988Z,102065.56
2023-07-18T00:22:51.260Z,102063.13
2023-07-18T00:25:14.636Z,102065.78
2023-07-18T00:27:41.340Z,102062.19
2023-07-18T00:30:04.192Z,102063.34
2023-07-18T00:32:26.097Z,102056.97
2023-07-18T00:34:49.376Z,102060.44
2023-07-18T00:37:11.832Z,102062.75
2023-07-18T00:39:33.638Z,102049.88
2023-07-18T00:41:55.662Z,102059.72
2023-07-18T00:44:17.509Z,102068.38
2023-07-18T00:46:40.099Z,102062.72
2023-07-18T00:49:02.059Z,102067.31
2023-07-18T00:51:26.265Z,102066.84
2023-07-18T00:53:48.103Z,102061.16
2023-07-18T00:56:11.078Z,102066.25
2023-07-18T00:58:33.037Z,102061.38
2023-07-18T01:00:55.743Z,102059.28
2023-07-18T01:03:18.581Z,102052.88
2023-07-18T01:05:40.781Z,102053.56
2023-07-18T01:08:04.477Z,102047.22
2023-07-18T01:10:28.430Z,102053.09
2023-07-18T01:12:54.080Z,102059.81
2023-07-18T01:15:23.054Z,102057.38
2023-07-18T01:17:46.627Z,102059.69
2023-07-18T01:20:13.563Z,102057.59
2023-07-18T01:22:36.550Z,102055.16
2023-07-18T01:24:58.465Z,102050.75
2023-07-18T01:27:20.244Z,102045.19
2023-07-18T01:29:42.103Z,102049.13
2023-07-18T01:32:04.303Z,102047.47
2023-07-18T01:34:25.997Z,102043.41
2023-07-18T01:36:49.046Z,102054.53
2023-07-18T01:39:10.806Z,102040.63
2023-07-18T01:41:32.752Z,102044.22
2023-07-18T01:43:54.887Z,102037.06
2023-07-18T01:46:16.731Z,102036.25
2023-07-18T01:48:39.643Z,102041.00
2023-07-18T01:51:02.725Z,102037.06
2023-07-18T01:53:27.301Z,102031.00
2023-07-18T01:55:50.901Z,102019.09
2023-07-18T01:58:12.724Z,102016.31
2023-07-18T02:00:36.450Z,102013.06
2023-07-18T02:02:58.983Z,102016.19
2023-07-18T02:05:26.479Z,102014.88
2023-07-18T02:07:49.193Z,102019.13
2023-07-18T02:10:12.184Z,102003.94
2023-07-18T02:12:34.424Z,102011.34
2023-07-18T02:14:56.685Z,102020.69
2023-07-18T02:17:18.587Z,102016.47
2023-07-18T02:19:41.251Z,102013.09
2023-07-18T02:22:04.565Z,102009.38
2023-07-18T02:24:27.624Z,102003.69
2023-07-18T02:26:49.451Z,102004.38
2023-07-18T02:29:11.399Z,102001.13
2023-07-18T02:31:34.370Z,102001.44
2023-07-18T02:33:56.102Z,101995.41
2023-07-18T02:36:19.102Z,102004.91
2023-07-18T02:38:40.775Z,102001.97
2023-07-18T02:41:02.394Z,102009.00
2023-07-18T02:43:25.443Z,102009.69
2023-07-18T02:45:49.476Z,102009.19
2023-07-18T02:48:12.179Z,102007.91
2023-07-18T02:50:36.714Z,102010.38
2023-07-18T02:52:59.920Z,101997.63
2023-07-18T02:55:21.515Z,101997.97
2023-07-18T02:57:43.337Z,101995.41
2023-07-18T03:00:12.042Z,102002.28
2023-07-18T03:02:34.386Z,101996.09
2023-07-18T03:04:57.552Z,101995.63
2023-07-18T03:07:19.454Z,101999.09
2023-07-18T03:09:43.109Z,102000.56
2023-07-18T03:12:07.316Z,102003.19
2023-07-18T03:14:30.495Z,102009.88
2023-07-18T03:16:52.221Z,102009.41
2023-07-18T03:19:15.483Z,102009.41
2023-07-18T03:21:37.534Z,102006.63
2023-07-18T03:23:59.587Z,101999.09
2023-07-18T03:26:21.404Z,102003.84
2023-07-18T03:28:43.078Z,102004.66
2023-07-18T03:31:04.707Z,102011.00
2023-07-18T03:33:29.226Z,102010.22
2023-07-18T03:35:51.217Z,102014.47
2023-07-18T03:38:14.937Z,102010.53
2023-07-18T03:40:36.780Z,102007.75
2023-07-18T03:42:58.525Z,102004.66
2023-07-18T03:45:20.220Z,102007.13
2023-07-18T03:47:43.483Z,101998.78
2023-07-18T03:50:05.785Z,102001.56
2023-07-18T03:52:27.423Z,102014.28
2023-07-18T03:54:49.106Z,102003.19
2023-07-18T03:57:10.790Z,102001.22
2023-07-18T03:59:32.518Z,101997.63
2023-07-18T04:01:54.376Z,102003.19
2023-07-18T04:04:16.632Z,101997.31
2023-07-18T04:06:38.351Z,101992.06
2023-07-18T04:09:01.195Z,101993.25
2023-07-18T04:11:23.320Z,102000.41
2023-07-18T04:13:44.999Z,101989.31
2023-07-18T04:16:06.990Z,101988.16
2023-07-18T04:18:28.742Z,101990.13
2023-07-18T04:20:50.920Z,101988.16
2023-07-18T04:23:12.671Z,101987.34
2023-07-18T04:25:36.192Z,101984.56
2023-07-18T04:27:58.091Z,101982.13
2023-07-18T04:30:19.884Z,101982.13
2023-07-18T04:32:43.316Z,101978.56
2023-07-18T04:35:07.264Z,101973.00
2023-07-18T04:37:29.379Z,101975.44
2023-07-18T04:39:51.095Z,101976.25
2023-07-18T04:42:13.420Z,101981.94
2023-07-18T04:44:35.111Z,101982.44
2023-07-18T04:46:56.870Z,101974.91
2023-07-18T04:49:19.326Z,101982.91
2023-07-18T04:51:41.394Z,101973.75
2023-07-18T04:54:04.166Z,101978.31
2023-07-18T04:56:25.843Z,101972.91
2023-07-18T04:58:47.497Z,101972.34
2023-07-18T05:01:09.578Z,101970.53
2023-07-18T05:03:40.959Z,101969.53
2023-07-18T05:06:13.721Z,101969.00
2023-07-18T05:08:35.511Z,101972.38
2023-07-18T05:11:02.748Z,101972.50
2023-07-18T05:13:24.433Z,101975.09
2023-07-18T05:15:46.292Z,101973.41
2023-07-18T05:18:08.108Z,101971.72
2023-07-18T05:20:30.859Z,101979.16
2023-07-18T05:22:52.763Z,101978.75
2023-07-18T05:25:17.743Z,101969.88
2023-07-18T05:27:41.088Z,101975.38
2023-07-18T05:30:05.643Z,101976.44
2023-07-18T05:32:27.790Z,101976.69
2023-07-18T05:34:50.879Z,101977.88
2023-07-18T05:37:12.657Z,101978.13
2023-07-18T05:39:34.449Z,101983.13
2023-07-18T05:41:56.181Z,101978.63
2023-07-18T05:44:17.866Z,101978.06
2023-07-18T05:46:41.284Z,101979.47
2023-07-18T05:49:03.269Z,101978.88
2023-07-18T05:51:25.014Z,101981.09
2023-07-18T05:53:46.771Z,101984.59
2023-07-18T05:56:08.973Z,101986.44
2023-07-18T05:58:30.688Z,101985.09
2023-07-18T06:00:52.397Z,101984.47
2023-07-18T06:03:14.173Z,101978.00
2023-07-18T06:05:35.966Z,101970.69
2023-07-18T06:07:57.777Z,101978.06
2023-07-18T06:10:19.583Z,101978.31
2023-07-18T06:12:41.265Z,101972.94
2023-07-18T06:15:03.302Z,101983.84
2023-07-18T06:17:24.945Z,101979.66
2023-07-18T06:19:49.569Z,101978.94
2023-07-18T06:22:11.743Z,101990.31
2023-07-18T06:24:33.384Z,101989.34
2023-07-18T06:26:55.198Z,101983.97
2023-07-18T06:29:21.509Z,101986.97
2023-07-18T06:31:43.356Z,101983.59
2023-07-18T06:34:05.113Z,101984.16
2023-07-18T06:36:27.113Z,101983.09
2023-07-18T06:38:48.841Z,101986.91
2023-07-18T06:41:10.826Z,101980.00
2023-07-18T06:43:33.583Z,101977.84
2023-07-18T06:45:55.221Z,101974.06
2023-07-18T06:48:18.235Z,101980.84
2023-07-18T06:50:48.253Z,101983.56
2023-07-18T06:53:09.937Z,101967.06
2023-07-18T06:55:32.604Z,101972.22
2023-07-18T06:57:54.277Z,101980.50
2023-07-18T07:00:16.900Z,101975.25
2023-07-18T07:02:38.696Z,101969.09
2023-07-18T07:05:01.237Z,101977.34
2023-07-18T07:07:23.310Z,101978.38
2023-07-18T07:09:45.444Z,101973.84
2023-07-18T07:12:08.668Z,101966.06
2023-07-18T07:14:30.510Z,101971.16
2023-07-18T07:16:52.297Z,101968.94
2023-07-18T07:19:14.580Z,101960.47
2023-07-18T07:21:36.500Z,101963.94
2023-07-18T07:23:59.640Z,101960.59
2023-07-18T07:26:21.370Z,101964.78
2023-07-18T07:28:43.092Z,101966.94
2023-07-18T07:31:06.705Z,101967.97
2023-07-18T07:33:28.705Z,101970.94
2023-07-18T07:35:50.709Z,101970.72
2023-07-18T07:38:12.663Z,101959.31
2023-07-18T07:40:34.559Z,101967.09
2023-07-18T07:42:56.552Z,101958.41
2023-07-18T07:45:18.342Z,101962.59
2023-07-18T07:47:40.706Z,101957.94
2023-07-18T07:50:03.389Z,101943.31
2023-07-18T07:52:25.345Z,101951.03
2023-07-18T07:54:49.717Z,101954.41
2023-07-18T07:57:11.778Z,101949.28
2023-07-18T07:59:33.542Z,101951.00
2023-07-18T08:01:55.657Z,101951.47
2023-07-18T08:04:17.712Z,101947.66
2023-07-18T08:06:40.609Z,101951.00
2023-07-18T08:09:03.746Z,101947.09
2023-07-18T08:11:25.479Z,101949.59
2023-07-18T08:13:47.311Z,101942.03
2023-07-18T08:16:09.092Z,101940.50
2023-07-18T08:18:30.951Z,101944.16
2023-07-18T08:20:52.672Z,101944.97
2023-07-18T08:23:14.628Z,101942.25
2023-07-18T08:25:36.476Z,101941.94
2023-07-18T08:27:58.309Z,101937.16
2023-07-18T08:30:21.078Z,101936.81
2023-07-18T08:32:43.458Z,101928.00
2023-07-18T08:35:06.393Z,101927.63
2023-07-18T08:37:28.095Z,101934.09
2023-07-18T08:39:49.833Z,101927.31
2023-07-18T08:42:15.288Z,101920.09
2023-07-18T08:44:37.923Z,101924.13
2023-07-18T08:47:01.952Z,101922.19
2023-07-18T08:49:28.899Z,101922.22
2023-07-18T08:51:50.799Z,101916.22
2023-07-18T08:54:16.399Z,101913.78
2023-07-18T08:56:44.011Z,101916.59
2023-07-18T08:59:05.734Z,101897.28
2023-07-18T09:01:27.731Z,101896.50
2023-07-18T09:03:49.636Z,101895.28
2023-07-18T09:06:21.402Z,101893.69
2023-07-18T09:08:44.880Z,101891.69
2023-07-18T09:11:06.826Z,101886.03
2023-07-18T09:13:28.736Z,101893.28
2023-07-18T09:15:50.510Z,101890.47
2023-07-18T09:18:14.161Z,101877.97
2023-07-18T09:20:36.194Z,101880.34
2023-07-18T09:23:06.338Z,101876.28
2023-07-18T09:25:28.620Z,101879.88
2023-07-18T09:27:58.682Z,101877.84
2023-07-18T09:30:38.978Z,101873.41
2023-07-18T09:33:04.964Z,101875.81
2023-07-18T09:35:30.208Z,101869.75
2023-07-18T09:37:51.992Z,101876.97
2023-07-18T09:40:19.187Z,101877.81
2023-07-18T09:42:47.420Z,101867.34
2023-07-18T09:45:12.456Z,101869.41
2023-07-18T09:47:35.607Z,101870.59
2023-07-18T09:49:57.320Z,101858.44
2023-07-18T09:52:27.646Z,101863.25
2023-07-18T09:54:53.793Z,101859.56
2023-07-18T09:57:17.642Z,101862.31
2023-07-18T09:59:40.858Z,101852.91
2023-07-18T10:02:07.143Z,101860.16
2023-07-18T10:04:29.268Z,101861.13
2023-07-18T10:06:56.744Z,101858.41
2023-07-18T10:09:20.135Z,101858.88
2023-07-18T10:12:00.404Z,101856.13
2023-07-18T10:14:22.095Z,101851.31
2023-07-18T10:16:43.968Z,101842.81
2023-07-18T10:19:20.367Z,101850.00
2023-07-18T10:21:47.502Z,101840.63
2023-07-18T10:24:27.366Z,101836.38
2023-07-18T10:26:53.450Z,101842.00
2023-07-18T10:29:16.028Z,101835.84
2023-07-18T10:31:40.543Z,101820.41
2023-07-18T10:34:20.580Z,101823.06
2023-07-18T10:36:56.194Z,101821.66
2023-07-18T10:39:18.161Z,101810.75
2023-07-18T10:41:46.806Z,101817.34
2023-07-18T10:44:16.160Z,101812.00
2023-07-18T10:46:39.737Z,101811.41
2023-07-18T10:49:01.618Z,101808.28
2023-07-18T10:51:23.426Z,101796.91
2023-07-18T10:53:54.038Z,101805.25
2023-07-18T10:56:25.041Z,101793.28
2023-07-18T10:58:47.730Z,101791.03
2023-07-18T11:01:11.001Z,101784.78
2023-07-18T11:03:37.138Z,101787.41
2023-07-18T11:05:58.933Z,101784.03
2023-07-18T11:08:29.877Z,101780.16
2023-07-18T11:11:00.477Z,101776.59
2023-07-18T11:13:38.406Z,101782.53
2023-07-18T11:16:08.165Z,101780.88
2023-07-18T11:18:42.960Z,101768.78
2023-07-18T11:21:09.243Z,101768.78
2023-07-18T11:23:32.942Z,101772.78
2023-07-18T11:25:54.692Z,101766.34
2023-07-18T11:28:16.741Z,101767.38
2023-07-18T11:30:38.538Z,101767.63
2023-07-18T11:33:00.233Z,101776.31
2023-07-18T11:35:24.276Z,101777.97
2023-07-18T11:37:49.265Z,101767.53
2023-07-18T11:40:12.391Z,101766.69
2023-07-18T11:42:47.966Z,101753.75
2023-07-18T11:45:11.124Z,101752.75
2023-07-18T11:47:33.377Z,101753.41
2023-07-18T11:49:55.162Z,101743.81
2023-07-18T11:52:19.612Z,101743.88
2023-07-18T11:54:42.475Z,101744.47
2023-07-18T11:57:06.454Z,101745.09
2023-07-18T11:59:28.295Z,101747.34
2023-07-18T12:01:50.277Z,101743.09
2023-07-18T12:04:16.132Z,101735.81
2023-07-18T12:06:38.752Z,101738.22
2023-07-18T12:09:00.488Z,101742.16
2023-07-18T12:11:23.407Z,101739.25
2023-07-18T12:13:45.245Z,101737.47
2023-07-18T12:16:07.538Z,101727.50
2023-07-18T12:18:29.269Z,101724.19
2023-07-18T12:20:51.554Z,101715.41
2023-07-18T12:23:13.320Z,101727.84
2023-07-18T12:25:35.070Z,101724.53
2023-07-18T12:27:56.693Z,101736.16
2023-07-18T12:30:18.466Z,101738.56
2023-07-18T12:32:40.160Z,101736.16
2023-07-18T12:35:02.000Z,101733.59
2023-07-18T12:37:24.378Z,101731.25
2023-07-18T12:39:46.216Z,101725.53
2023-07-18T12:42:08.096Z,101727.13
2023-07-18T12:44:42.533Z,101723.94
2023-07-18T12:47:04.954Z,101719.41
2023-07-18T12:51:51.422Z,101727.84
2023-07-18T12:54:13.175Z,101718.47
2023-07-18T12:56:36.531Z,101718.75
2023-07-18T12:58:58.615Z,101708.88
2023-07-18T13:01:20.541Z,101709.09
2023-07-18T13:03:42.437Z,101708.88
2023-07-18T13:06:07.634Z,101709.88
2023-07-18T13:08:29.832Z,101704.03
2023-07-18T13:10:51.859Z,101685.19
2023-07-18T13:13:13.538Z,101676.81
2023-07-18T13:15:35.288Z,101685.50
2023-07-18T13:17:57.093Z,101682.16
2023-07-18T13:20:19.760Z,101668.16
2023-07-18T13:22:41.525Z,101666.41
2023-07-18T13:25:05.155Z,101662.38
2023-07-18T13:27:26.916Z,101657.81
2023-07-18T13:29:48.702Z,101652.22
2023-07-18T13:32:10.559Z,101652.94
2023-07-18T13:34:32.398Z,101644.78
2023-07-18T13:36:54.053Z,101639.47
2023-07-18T13:39:16.880Z,101632.34
2023-07-18T13:41:38.725Z,101629.69
2023-07-18T13:44:00.426Z,101629.34
2023-07-18T13:46:22.511Z,101621.97
2023-07-18T13:48:46.234Z,101618.59
2023-07-18T13:51:08.357Z,101616.38
2023-07-18T13:53:30.669Z,101615.75
2023-07-18T13:55:52.632Z,101613.63
2023-07-18T13:58:15.952Z,101611.47
2023-07-18T14:00:38.234Z,101604.22
2023-07-18T14:03:00.189Z,101605.19
2023-07-18T14:05:22.355Z,101596.84
2023-07-18T14:07:44.231Z,101596.06
2023-07-18T14:10:07.761Z,101590.94
2023-07-18T14:12:29.928Z,101596.19
2023-07-18T14:14:51.800Z,101588.81
2023-07-18T14:17:13.771Z,101586.34
2023-07-18T14:19:36.139Z,101583.47
2023-07-18T14:21:58.303Z,101578.22
2023-07-18T14:24:20.288Z,101579.84
2023-07-18T14:26:42.299Z,101589.84
2023-07-18T14:29:05.056Z,101584.69
2023-07-18T14:31:27.063Z,101582.66
2023-07-18T14:34:04.736Z,101569.81
2023-07-18T14:36:27.934Z,101577.72
2023-07-18T14:38:50.078Z,101565.41
2023-07-18T14:41:13.322Z,101573.72
2023-07-18T14:43:35.327Z,101568.75
2023-07-18T14:45:57.385Z,101574.53
2023-07-18T14:48:19.493Z,101568.50
2023-07-18T14:50:41.354Z,101562.81
2023-07-18T14:53:03.464Z,101558.66
2023-07-18T14:55:25.482Z,101562.63
2023-07-18T14:57:47.636Z,101563.28
2023-07-18T15:00:11.107Z,101561.47
2023-07-18T15:02:33.073Z,101554.94
2023-07-18T15:04:57.744Z,101547.44
2023-07-18T15:07:19.739Z,101553.13
2023-07-18T15:09:41.791Z,101546.66
2023-07-18T15:12:04.202Z,101553.31
2023-07-18T15:14:26.297Z,101548.47
2023-07-18T15:16:48.191Z,101554.03
2023-07-18T15:19:10.158Z,101550.84
2023-07-18T15:21:32.062Z,101549.59
2023-07-18T15:23:54.091Z,101552.63
2023-07-18T15:26:16.592Z,101545.34
2023-07-18T15:28:38.520Z,101544.31
2023-07-18T15:31:00.492Z,101538.63
2023-07-18T15:33:27.113Z,101533.72
2023-07-18T15:35:49.419Z,101528.59
2023-07-18T15:38:11.524Z,101529.56
2023-07-18T15:40:33.820Z,101531.75
2023-07-18T15:42:56.589Z,101521.13
2023-07-18T15:45:18.501Z,101512.41
2023-07-18T15:47:40.357Z,101515.69
2023-07-18T15:50:02.498Z,101524.47
2023-07-18T15:52:24.985Z,101519.47
2023-07-18T15:54:46.935Z,101521.97
2023-07-18T15:57:11.149Z,101513.00
2023-07-18T15:59:34.692Z,101511.31
2023-07-18T16:01:59.065Z,101499.50
2023-07-18T16:04:21.914Z,101502.34
2023-07-18T16:06:44.346Z,101488.59
2023-07-18T16:09:06.695Z,101501.63
2023-07-18T16:11:28.670Z,101501.28
2023-07-18T16:13:50.872Z,101495.97
2023-07-18T16:16:18.262Z,101486.22
2023-07-18T16:19:04.739Z,101484.72
2023-07-18T16:21:27.480Z,101479.91
2023-07-18T16:23:50.384Z,101477.78
2023-07-18T16:26:12.331Z,101483.66
2023-07-18T16:28:34.286Z,101468.16
2023-07-18T16:30:56.292Z,101471.56
2023-07-18T16:33:18.317Z,101468.94
2023-07-18T16:35:40.517Z,101474.25
2023-07-18T16:38:03.813Z,101464.75
2023-07-18T16:40:25.751Z,101454.72
2023-07-18T16:42:47.573Z,101458.34
2023-07-18T16:45:10.524Z,101454.91
2023-07-18T16:47:32.406Z,101456.63
2023-07-18T16:49:54.390Z,101453.72
2023-07-18T16:52:16.429Z,101449.13
2023-07-18T16:54:38.359Z,101443.88
2023-07-18T16:57:00.176Z,101441.75
2023-07-18T16:59:22.414Z,101445.56
2023-07-18T17:01:44.304Z,101432.59
2023-07-18T17:04:06.823Z,101435.78
2023-07-18T17:06:31.078Z,101444.56
2023-07-18T17:08:53.192Z,101442.81
2023-07-18T17:11:15.729Z,101433.13
2023-07-18T17:13:38.711Z,101427.31
2023-07-18T17:16:01.381Z,101417.06
2023-07-18T17:18:24.286Z,101424.47
2023-07-18T17:20:47.673Z,101418.09
2023-07-18T17:23:11.647Z,101416.47
2023-07-18T17:25:34.726Z,101421.19
2023-07-18T17:27:57.365Z,101414.66
2023-07-18T17:30:20.118Z,101419.84
2023-07-18T17:32:42.740Z,101408.47
2023-07-18T17:35:05.853Z,101409.41
2023-07-18T17:37:28.660Z,101414.69
2023-07-18T17:39:51.414Z,101410.81
2023-07-18T17:42:15.904Z,101408.16
2023-07-18T17:44:38.515Z,101414.72
2023-07-18T17:47:02.315Z,101408.53
2023-07-18T17:49:25.138Z,101411.38
2023-07-18T17:51:48.107Z,101407.53
2023-07-18T17:54:10.811Z,101405.75
2023-07-18T17:56:34.077Z,101408.03
2023-07-18T17:58:59.538Z,101413.91
2023-07-18T18:01:21.928Z,101411.72
2023-07-18T18:03:44.191Z,101400.59
2023-07-18T18:06:06.192Z,101398.75
2023-07-18T18:08:28.328Z,101401.41
2023-07-18T18:10:50.450Z,101399.06
2023-07-18T18:13:13.840Z,101403.63
2023-07-18T18:15:35.862Z,101405.66
2023-07-18T18:17:57.853Z,101399.19
2023-07-18T18:20:21.098Z,101399.19
2023-07-18T18:22:43.004Z,101398.47
2023-07-18T18:25:05.425Z,101392.06
2023-07-18T18:27:27.381Z,101388.94
2023-07-18T18:29:49.677Z,101397.13
2023-07-18T18:32:12.767Z,101398.84
2023-07-18T18:34:34.782Z,101395.75
2023-07-18T18:36:56.801Z,101398.34
2023-07-18T18:39:19.234Z,101400.91
2023-07-18T18:41:41.179Z,101401.13
2023-07-18T18:44:03.010Z,101402.53
2023-07-18T18:46:24.929Z,101402.25
2023-07-18T18:48:46.784Z,101395.50
2023-07-18T18:51:09.594Z,101400.91
2023-07-18T18:53:31.730Z,101397.44
2023-07-18T18:55:54.302Z,101397.13
2023-07-18T18:58:16.137Z,101397.22
2023-07-18T19:00:39.583Z,101397.75
2023-07-18T19:03:01.449Z,101402.25
2023-07-18T19:05:23.334Z,101403.53
2023-07-18T19:07:45.333Z,101395.13
2023-07-18T19:10:07.782Z,101394.31
2023-07-18T19:12:29.626Z,101396.31
2023-07-18T19:14:51.668Z,101392.75
2023-07-18T19:17:13.540Z,101396.81
2023-07-18T19:19:41.587Z,101405.75
2023-07-18T19:22:03.470Z,101397.81
2023-07-18T19:24:25.383Z,101404.34
2023-07-18T19:26:47.430Z,101398.84
2023-07-18T19:29:09.784Z,101398.50
2023-07-18T19:31:31.642Z,101401.00
2023-07-18T19:33:53.543Z,101403.88
2023-07-18T19:36:15.885Z,101403.91
2023-07-18T19:38:40.177Z,101407.56
2023-07-18T19:41:02.717Z,101398.81
2023-07-18T19:43:24.730Z,101400.88
2023-07-18T19:45:46.961Z,101402.53
2023-07-18T19:48:08.900Z,101402.59
2023-07-18T19:50:30.709Z,101392.97
2023-07-18T19:52:52.561Z,101402.69
2023-07-18T19:55:14.501Z,101402.34
2023-07-18T19:57:36.507Z,101398.75
2023-07-18T19:59:58.427Z,101406.81
2023-07-18T20:02:20.419Z,101410.09
2023-07-18T20:04:42.250Z,101399.72
2023-07-18T20:07:04.548Z,101410.56
2023-07-18T20:09:26.478Z,101409.78
2023-07-18T20:11:48.285Z,101418.22
2023-07-18T20:14:10.111Z,101417.84
2023-07-18T20:16:32.772Z,101430.31
2023-07-18T20:19:01.671Z,101423.50
2023-07-18T20:21:24.176Z,101428.38
2023-07-18T20:23:46.027Z,101421.56
2023-07-18T20:26:10.207Z,101421.94
2023-07-18T20:28:32.842Z,101424.78
2023-07-18T20:30:56.002Z,101414.75
2023-07-18T20:33:18.218Z,101422.38
2023-07-18T20:35:40.041Z,101411.94
2023-07-18T20:38:01.886Z,101410.38
2023-07-18T20:40:24.061Z,101407.16
2023-07-18T20:42:45.848Z,101404.69
2023-07-18T20:45:08.464Z,101413.13
2023-07-18T20:47:31.884Z,101401.47
2023-07-18T20:49:53.652Z,101405.88
2023-07-18T20:52:16.645Z,101403.06
2023-07-18T20:54:39.375Z,101407.06
2023-07-18T20:57:01.106Z,101401.81
2023-07-18T20:59:22.921Z,101399.41
2023-07-18T21:01:44.687Z,101397.41
2023-07-18T21:04:06.589Z,101394.19
2023-07-18T21:06:29.316Z,101400.19
2023-07-18T21:08:51.587Z,101398.59
2023-07-18T21:11:15.474Z,101394.97
2023-07-18T21:13:37.260Z,101401.75
2023-07-18T21:15:59.224Z,101403.31
2023-07-18T21:18:21.146Z,101399.31
2023-07-18T21:20:42.940Z,101398.50
2023-07-18T21:23:05.109Z,101396.50
2023-07-18T21:25:29.554Z,101404.13
2023-07-18T21:27:51.384Z,101406.94
2023-07-18T21:30:13.257Z,101409.66
2023-07-18T21:32:36.217Z,101404.06
2023-07-18T21:34:58.069Z,101395.25
2023-07-18T21:37:19.876Z,101388.41
2023-07-18T21:39:41.726Z,101395.66
2023-07-18T21:42:04.589Z,101397.25
2023-07-18T21:44:26.326Z,101391.22
2023-07-18T21:46:48.176Z,101382.03
2023-07-18T21:49:10.094Z,101379.22
2023-07-18T21:51:32.143Z,101375.19
2023-07-18T21:53:54.022Z,101376.41
2023-07-18T21:56:15.857Z,101380.81
2023-07-18T21:58:38.086Z,101380.38
2023-07-18T22:00:59.949Z,101381.16
2023-07-18T22:03:22.068Z,101377.91
2023-07-18T22:05:43.962Z,101376.69
2023-07-18T22:08:05.894Z,101367.03
2023-07-18T22:10:27.838Z,101378.19
2023-07-18T22:12:49.715Z,101372.56
2023-07-18T22:15:11.594Z,101369.31
2023-07-18T22:17:33.404Z,101378.47
2023-07-18T22:19:55.314Z,101384.41
2023-07-18T22:22:17.185Z,101379.13
2023-07-18T22:24:39.141Z,101378.31
2023-07-18T22:27:00.934Z,101375.91
2023-07-18T22:29:22.759Z,101380.28
2023-07-18T22:31:44.586Z,101367.47
2023-07-18T22:34:06.799Z,101371.47
2023-07-18T22:36:28.640Z,101379.03
2023-07-18T22:38:50.449Z,101382.59
2023-07-18T22:41:12.296Z,101379.38
2023-07-18T22:43:34.163Z,101372.56
2023-07-18T22:45:55.951Z,101371.72
2023-07-18T22:48:22.499Z,101372.50
2023-07-18T22:50:44.288Z,101373.22
2023-07-18T22:53:06.977Z,101367.56
2023-07-18T22:55:30.426Z,101373.88
2023-07-18T22:57:52.221Z,101361.03
2023-07-18T23:00:14.461Z,101363.75
2023-07-18T23:02:37.102Z,101364.09
2023-07-18T23:04:58.962Z,101366.41
2023-07-18T23:07:20.787Z,101367.91
2023-07-18T23:09:42.699Z,101365.81
2023-07-18T23:12:05.130Z,101362.13
2023-07-18T23:14:27.606Z,101359.63
2023-07-18T23:16:51.097Z,101354.38
2023-07-18T23:19:13.206Z,101357.13
2023-07-18T23:21:34.986Z,101351.50
2023-07-18T23:23:56.912Z,101347.41
2023-07-18T23:26:18.696Z,101345.34
2023-07-18T23:28:41.297Z,101337.69
2023-07-18T23:31:05.921Z,101334.41
2023-07-18T23:33:27.709Z,101334.34
2023-07-18T23:35:49.364Z,101337.84
2023-07-18T23:38:11.609Z,101344.56
2023-07-18T23:40:33.344Z,101336.50
2023-07-18T23:42:54.989Z,101340.81
2023-07-18T23:45:17.020Z,101334.75
2023-07-18T23:47:38.804Z,101345.91
2023-07-18T23:50:00.692Z,101333.94
2023-07-18T23:52:22.314Z,101335.13
2023-07-18T23:54:44.052Z,101333.09
2023-07-18T23:57:06.271Z,101341.06
2023-07-18T23:59:27.969Z,101351.38
